MAPA DE AEROPUERTO

INFORMACIÓN METAR y TAF

METAR FOR LEBL
ADDS - METARS form results

(0952 UTC 29 January 2022)
Data provider http://aviationweather.gov/metar/data/
 
METAR text: LEBL 290930Z 32012KT CAVOK 09/M01 Q1033 NOSIG
Conditions at: LEBL (BARCELONA AIRPOR, ES) observed 0930 UTC 29 January 2022
Temperature: 9.0°C (48°F)
Dewpoint: -1.0°C (30°F) [RH = 49%]
Pressure (altimeter): 30.50 inches Hg (1033.0 mb)
Winds: from the NW (320 degrees) at 14 MPH (12 knots; 6.2 m/s)
Visibility: 6 or more miles (10+ km)
Ceiling: ceiling and visibility are OK
Clouds: unknown
Weather: no significant weather observed at this time

METAR text: LEBL 290900Z 32013KT CAVOK 07/M01 Q1033 NOSIG
Conditions at: LEBL (BARCELONA AIRPOR, ES) observed 0900 UTC 29 January 2022
Temperature: 7.0°C (45°F)
Dewpoint: -1.0°C (30°F) [RH = 57%]
Pressure (altimeter): 30.50 inches Hg (1033.0 mb)
Winds: from the NW (320 degrees) at 15 MPH (13 knots; 6.7 m/s)
Visibility: 6 or more miles (10+ km)
Ceiling: ceiling and visibility are OK
Clouds: unknown
Weather: no significant weather observed at this time

Forecast for: LEBL (BARCELONA AIRPOR, ES)
Text: TAF LEBL 290500Z 2906/3006 32010KT CAVOK TX15/2913Z TN04/2907Z
Forecast period: 0600 to 1000 UTC 29 January 2022
Forecast type: FROM: standard forecast or significant change
Winds: from the NW (320 degrees) at 12 MPH (10 knots; 5.1 m/s)
Visibility: 6 or more miles (10+ km)
Ceiling: unknown
Clouds: missing
Weather: no significant weather forecast for this period
Text: PROB30
Forecast period: 0600 to 0800 UTC 29 January 2022
Forecast type: TEMPORARY: The following changes expected for less than half the time period
Winds: from the NW (320 degrees) at 12 MPH (10 knots; 5.1 m/s)
gusting to 23 MPH (20 knots; 10.3 m/s)
Visibility: missing
Ceiling: unknown
Clouds: missing
Weather: no significant weather forecast for this period
Text: TEMPO 2906/2908 32010G20KT
Forecast period: 1000 to 2000 UTC 29 January 2022
Forecast type: BECOMING: Conditions expected to become as follows by 1200 UTC 29 January 2022
Winds: from the SW (220 degrees) at 9 MPH (8 knots; 4.1 m/s)
Visibility: 6 or more miles (10+ km)
Ceiling: unknown
Clouds: missing
Weather: no significant weather forecast for this period
Text: BECMG 2910/2912 22008KT
Forecast period: 2000 UTC 29 January 2022 to 0600 UTC 30 January 2022
Forecast type: BECOMING: Conditions expected to become as follows by 2200 UTC 29 January 2022
Winds: from the NNW (330 degrees) at 12 MPH (10 knots; 5.1 m/s)
Visibility: 6 or more miles (10+ km)
Ceiling: unknown
Clouds: missing
Weather: no significant weather forecast for this period